Main page
METAR-TAF:

METAR-TAF

Airports :

Minsk-1, Belarus

Minsk-1 Airport

latitude: 53-51-54N, longitude: 027-32-30E, elevation: 228 m

Current weather observation

The report was made 2 hours and 30 minutes ago, at 14:00 UTC
Wind 6 kt from the Northeast
Temperature -8°C
Humidity 73%
Pressure 1023 hPa
Visibility 10 km or more
Scattered clouds at a height of 2500 ft
Broken clouds at a height of 10000 ft

METAR: UMMM 231400Z 05003MPS 9999 SCT025 BKN100 M08/M12 Q1023 RMK QFE747

Time: 19:30 (16:30 UTC)

Forecast

The report was made 29 hours and 23 minutes ago, at 11:07 UTC
Forecast valid from 22 at 12 UTC to 22 at 21 UTC
Wind 12 kt from the North/Northeast
Visibility: 8000 m
Broken clouds at a height of 1000 ft
Temporary
from 22 at 12 UTC to 22 at 21 UTC
Visibility: 3000 m
Scattered clouds at a height of 700 ft
light snow, mist

TAF: UMMM 221107Z 2212/2221 03006MPS 8000 BKN010 TEMPO 2212/2221 3000 -SN BR SCT007

Weather observations and forecasts of more than 4000 airports (METAR and TAF reports).

The available stations are represented by yellow and red dots on the map.

Hover mouse over dot to see the name of the station.

Then click to see weather observations and forecasts.

To change the map : click on the green buttons with a black cross to zoom in, on the green button with a dash to zoom out, or on the green arrows for adjacent maps.


METAR-TAF: